createdAt,value
2023-02-23T00:01:40.410Z,110.38
2023-02-23T00:04:08.586Z,103.47
2023-02-23T00:06:38.102Z,108.53
2023-02-23T00:09:10.808Z,104.05
2023-02-23T00:11:40.005Z,101.82
2023-02-23T00:14:08.385Z,107.10
2023-02-23T00:16:37.486Z,112.25
2023-02-23T00:19:08.244Z,103.22
2023-02-23T00:21:36.524Z,115.70
2023-02-23T00:24:06.735Z,112.78
2023-02-23T00:26:35.626Z,103.85
2023-02-23T00:29:06.632Z,105.32
2023-02-23T00:31:35.112Z,105.72
2023-02-23T00:34:04.275Z,99.68
2023-02-23T00:36:33.960Z,103.22
2023-02-23T00:39:06.365Z,105.72
2023-02-23T00:41:34.330Z,107.30
2023-02-23T00:44:02.450Z,125.10
2023-02-23T00:46:31.903Z,104.18
2023-02-23T00:49:00.778Z,103.57
2023-02-23T00:51:30.988Z,106.18
2023-02-23T00:53:59.822Z,109.82
2023-02-23T00:56:28.538Z,112.22
2023-02-23T00:58:56.669Z,106.95
2023-02-23T01:01:25.591Z,105.25
2023-02-23T01:03:54.763Z,93.85
2023-02-23T01:06:23.072Z,98.00
2023-02-23T01:08:56.601Z,110.90
2023-02-23T01:11:27.826Z,101.32
2023-02-23T01:13:57.979Z,107.78
2023-02-23T01:16:27.909Z,98.38
2023-02-23T01:18:58.664Z,104.95
2023-02-23T01:21:28.835Z,92.60
2023-02-23T01:24:00.004Z,102.47
2023-02-23T01:26:30.174Z,95.55
2023-02-23T01:29:01.536Z,107.28
2023-02-23T01:31:31.310Z,111.13
2023-02-23T01:34:02.958Z,98.13
2023-02-23T01:36:34.538Z,115.50
2023-02-23T01:39:02.329Z,103.00
2023-02-23T01:41:33.025Z,116.88
2023-02-23T01:44:05.141Z,90.40
2023-02-23T01:46:34.161Z,91.57
2023-02-23T01:49:05.464Z,101.60
2023-02-23T01:51:38.259Z,96.63
2023-02-23T01:54:11.124Z,106.07
2023-02-23T01:56:43.555Z,97.05
2023-02-23T01:59:15.332Z,99.70
2023-02-23T02:01:44.154Z,97.32
2023-02-23T02:04:16.546Z,99.53
2023-02-23T02:06:46.965Z,107.55
2023-02-23T02:09:19.083Z,96.53
2023-02-23T02:11:54.162Z,96.97
2023-02-23T02:14:25.531Z,94.22
2023-02-23T02:17:03.575Z,97.22
2023-02-23T02:20:00.313Z,110.38
2023-02-23T02:23:15.824Z,98.93
2023-02-23T02:25:56.077Z,98.47
2023-02-23T02:28:56.963Z,98.85
2023-02-23T02:32:08.000Z,96.43
2023-02-23T02:34:59.544Z,110.53
2023-02-23T02:37:37.818Z,97.63
2023-02-23T02:40:17.350Z,107.93
2023-02-23T02:43:09.009Z,93.13
2023-02-23T02:45:44.670Z,96.85
2023-02-23T02:48:21.770Z,92.32
2023-02-23T02:50:56.189Z,97.88
2023-02-23T02:53:31.679Z,107.35
2023-02-23T02:56:05.614Z,84.20
2023-02-23T02:58:33.948Z,102.05
2023-02-23T03:01:25.794Z,97.65
2023-02-23T03:04:11.336Z,94.75
2023-02-23T03:07:03.526Z,98.45
2023-02-23T03:09:59.699Z,99.80
2023-02-23T03:12:52.305Z,91.30
2023-02-23T03:15:55.393Z,93.93
2023-02-23T03:18:58.508Z,88.38
2023-02-23T03:21:47.355Z,87.45
2023-02-23T03:24:42.404Z,90.80
2023-02-23T03:27:37.649Z,87.93
2023-02-23T03:30:29.021Z,95.78
2023-02-23T03:33:19.991Z,86.32
2023-02-23T03:36:11.310Z,81.45
2023-02-23T03:39:03.883Z,92.10
2023-02-23T03:41:52.759Z,84.93
2023-02-23T03:44:45.857Z,94.35
2023-02-23T03:47:34.019Z,83.38
2023-02-23T03:50:24.405Z,105.25
2023-02-23T03:53:15.283Z,120.03
2023-02-23T03:56:04.055Z,101.75
2023-02-23T03:58:55.162Z,111.82
2023-02-23T04:01:45.044Z,86.80
2023-02-23T04:04:31.046Z,101.43
2023-02-23T04:07:19.388Z,109.43
2023-02-23T04:10:04.733Z,87.50
2023-02-23T04:12:55.914Z,88.18
2023-02-23T04:15:28.423Z,92.68
2023-02-23T04:17:57.665Z,84.50
2023-02-23T04:20:26.331Z,87.15
2023-02-23T04:22:54.144Z,84.75
2023-02-23T04:25:23.151Z,90.28
2023-02-23T04:27:51.031Z,84.05
2023-02-23T04:30:20.710Z,85.93
2023-02-23T04:32:48.620Z,100.57
2023-02-23T04:35:17.837Z,94.82
2023-02-23T04:37:45.556Z,90.85
2023-02-23T04:40:14.058Z,94.43
2023-02-23T04:42:42.533Z,92.32
2023-02-23T04:45:11.542Z,85.47
2023-02-23T04:47:39.475Z,92.85
2023-02-23T04:50:08.499Z,95.43
2023-02-23T04:52:38.890Z,81.03
2023-02-23T04:55:08.407Z,101.35
2023-02-23T04:57:36.565Z,91.57
2023-02-23T05:00:05.767Z,96.78
2023-02-23T05:02:33.516Z,92.05
2023-02-23T05:05:01.295Z,97.25
2023-02-23T05:07:29.019Z,97.43
2023-02-23T05:09:58.146Z,111.90
2023-02-23T05:12:25.909Z,99.68
2023-02-23T05:14:53.598Z,97.20
2023-02-23T05:17:21.415Z,87.28
2023-02-23T05:19:49.162Z,84.43
2023-02-23T05:22:16.927Z,90.97
2023-02-23T05:24:44.702Z,104.07
2023-02-23T05:27:14.117Z,93.00
2023-02-23T05:29:41.888Z,110.90
2023-02-23T05:32:09.763Z,104.90
2023-02-23T05:34:39.086Z,87.50
2023-02-23T05:37:07.199Z,102.38
2023-02-23T05:39:34.961Z,114.28
2023-02-23T05:42:02.677Z,96.43
2023-02-23T05:44:31.811Z,88.40
2023-02-23T05:46:59.634Z,101.15
2023-02-23T05:49:27.402Z,85.35
2023-02-23T05:51:55.211Z,92.63
2023-02-23T05:54:22.942Z,104.93
2023-02-23T05:56:51.000Z,89.10
2023-02-23T05:59:18.768Z,84.72
2023-02-23T06:01:47.838Z,91.50
2023-02-23T06:04:15.849Z,101.82
2023-02-23T06:06:43.741Z,104.25
2023-02-23T06:09:11.462Z,90.68
2023-02-23T06:11:39.223Z,82.95
2023-02-23T06:14:06.985Z,112.63
2023-02-23T06:16:34.846Z,91.97
2023-02-23T06:19:04.312Z,109.43
2023-02-23T06:21:32.026Z,98.28
2023-02-23T06:24:01.036Z,99.53
2023-02-23T06:26:29.028Z,130.95
2023-02-23T06:28:57.176Z,183.85
2023-02-23T06:31:24.941Z,189.15
2023-02-23T06:33:52.717Z,224.82
2023-02-23T06:36:21.828Z,74.22
2023-02-23T06:38:49.547Z,70.22
2023-02-23T06:41:18.080Z,70.82
2023-02-23T06:43:45.971Z,87.18
2023-02-23T06:46:13.821Z,79.90
2023-02-23T06:48:41.742Z,64.50
2023-02-23T06:51:09.830Z,92.13
2023-02-23T06:53:39.019Z,110.80
2023-02-23T06:56:07.407Z,127.32
2023-02-23T06:58:35.190Z,92.75
2023-02-23T07:01:03.282Z,68.13
2023-02-23T07:03:31.066Z,77.82
2023-02-23T07:05:58.818Z,77.70
2023-02-23T07:08:26.552Z,68.07
2023-02-23T07:10:57.722Z,63.15
2023-02-23T07:13:25.419Z,92.60
2023-02-23T07:15:58.265Z,119.75
2023-02-23T07:18:26.088Z,96.83
2023-02-23T07:20:53.871Z,72.13
2023-02-23T07:23:22.315Z,75.10
2023-02-23T07:25:51.322Z,89.30
2023-02-23T07:28:21.090Z,78.93
2023-02-23T07:30:49.922Z,99.75
2023-02-23T07:33:18.051Z,93.40
2023-02-23T07:35:46.231Z,88.00
2023-02-23T07:38:14.014Z,100.00
2023-02-23T07:40:41.828Z,103.80
2023-02-23T07:43:09.614Z,99.80
2023-02-23T07:45:38.821Z,125.57
2023-02-23T07:48:06.950Z,115.57
2023-02-23T07:50:35.618Z,114.88
2023-02-23T07:53:03.356Z,108.40
2023-02-23T07:55:31.063Z,111.75
2023-02-23T07:57:59.118Z,114.65
2023-02-23T08:00:27.235Z,121.82
2023-02-23T08:02:56.391Z,119.18
2023-02-23T08:05:26.581Z,106.43
2023-02-23T08:07:54.486Z,116.88
2023-02-23T08:10:22.346Z,105.70
2023-02-23T08:12:50.173Z,116.90
2023-02-23T08:15:18.001Z,106.07
2023-02-23T08:17:45.750Z,114.90
2023-02-23T08:20:15.059Z,98.53
2023-02-23T08:22:49.444Z,107.93
2023-02-23T08:25:18.287Z,114.97
2023-02-23T08:27:46.058Z,104.07
2023-02-23T08:30:15.505Z,96.88
2023-02-23T08:32:43.332Z,105.03
2023-02-23T08:35:11.869Z,92.78
2023-02-23T08:37:41.861Z,88.38
2023-02-23T08:40:11.501Z,101.57
2023-02-23T08:42:39.234Z,93.97
2023-02-23T08:45:08.681Z,99.50
2023-02-23T08:47:36.811Z,100.30
2023-02-23T08:50:06.257Z,92.13
2023-02-23T08:52:34.079Z,94.55
2023-02-23T08:55:03.258Z,88.80
2023-02-23T08:57:33.769Z,75.38
2023-02-23T09:00:01.661Z,81.65
2023-02-23T09:02:29.802Z,73.68
2023-02-23T09:04:57.908Z,71.68
2023-02-23T09:07:25.768Z,74.72
2023-02-23T09:09:56.919Z,74.47
2023-02-23T09:12:26.138Z,73.93
2023-02-23T09:14:54.360Z,71.30
2023-02-23T09:17:23.285Z,61.60
2023-02-23T09:19:51.622Z,64.13
2023-02-23T09:22:19.819Z,64.95
2023-02-23T09:24:47.677Z,61.03
2023-02-23T09:27:15.440Z,56.45
2023-02-23T09:29:44.525Z,44.65
2023-02-23T09:32:13.427Z,40.10
2023-02-23T09:34:41.275Z,34.33
2023-02-23T09:37:09.045Z,36.55
2023-02-23T09:39:39.056Z,38.30
2023-02-23T09:42:35.023Z,36.40
2023-02-23T09:45:15.602Z,34.92
2023-02-23T09:47:57.466Z,35.78
2023-02-23T09:50:30.038Z,33.43
2023-02-23T09:53:03.618Z,33.20
2023-02-23T09:58:07.036Z,28.85
2023-02-23T10:00:41.555Z,28.63
2023-02-23T10:03:20.793Z,30.30
2023-02-23T10:05:53.467Z,32.63
2023-02-23T10:08:39.565Z,33.13
2023-02-23T10:11:15.063Z,33.85
2023-02-23T10:13:56.011Z,28.70
2023-02-23T10:16:37.480Z,31.23
2023-02-23T10:19:13.122Z,24.20
2023-02-23T10:21:42.652Z,32.50
2023-02-23T10:24:15.246Z,22.63
2023-02-23T10:26:48.444Z,26.40
2023-02-23T10:29:24.085Z,24.23
2023-02-23T10:31:58.667Z,22.92
2023-02-23T10:34:29.056Z,27.30
2023-02-23T10:37:01.565Z,25.35
2023-02-23T10:39:30.925Z,28.38
2023-02-23T10:42:00.807Z,19.95
2023-02-23T10:44:29.814Z,27.40
2023-02-23T10:47:02.718Z,22.83
2023-02-23T10:49:40.227Z,27.00
2023-02-23T10:52:13.609Z,22.33
2023-02-23T10:54:45.724Z,24.33
2023-02-23T10:57:21.884Z,25.42
2023-02-23T11:00:20.410Z,22.40
2023-02-23T11:02:49.897Z,24.83
2023-02-23T11:05:32.356Z,29.70
2023-02-23T11:08:22.446Z,20.95
2023-02-23T11:11:08.380Z,23.23
2023-02-23T11:13:42.435Z,27.10
2023-02-23T11:16:14.183Z,23.23
2023-02-23T11:18:50.806Z,22.25
2023-02-23T11:21:24.334Z,21.65
2023-02-23T11:23:54.262Z,17.77
2023-02-23T11:26:37.684Z,22.00
2023-02-23T11:29:15.935Z,19.58
2023-02-23T11:31:49.746Z,21.52
2023-02-23T11:37:03.423Z,24.50
2023-02-23T11:39:31.350Z,23.25
2023-02-23T11:42:14.925Z,20.73
2023-02-23T11:44:42.877Z,17.80
2023-02-23T11:47:17.256Z,19.45
2023-02-23T11:49:48.258Z,20.85
2023-02-23T11:52:19.490Z,19.75
2023-02-23T11:54:53.605Z,24.25
2023-02-23T11:57:23.105Z,20.95
2023-02-23T11:59:52.247Z,26.58
2023-02-23T12:02:24.867Z,23.13
2023-02-23T12:05:05.116Z,21.75
2023-02-23T12:07:41.411Z,23.42
2023-02-23T12:10:16.606Z,23.10
2023-02-23T12:12:52.008Z,25.48
2023-02-23T12:15:31.889Z,21.58
2023-02-23T12:18:04.005Z,21.45
2023-02-23T12:20:38.757Z,23.17
2023-02-23T12:23:11.251Z,22.65
2023-02-23T12:25:43.909Z,24.20
2023-02-23T12:28:19.370Z,29.95
2023-02-23T12:30:53.006Z,25.95
2023-02-23T12:33:27.082Z,28.75
2023-02-23T12:36:00.790Z,33.50
2023-02-23T12:38:35.676Z,31.98
2023-02-23T12:41:10.598Z,25.60
2023-02-23T12:43:42.277Z,24.83
2023-02-23T12:46:15.640Z,26.45
2023-02-23T12:48:51.927Z,27.58
2023-02-23T12:51:28.624Z,24.23
2023-02-23T12:53:56.534Z,26.35
2023-02-23T12:56:35.618Z,27.85
2023-02-23T12:59:39.263Z,27.60
2023-02-23T13:02:15.649Z,28.52
2023-02-23T13:05:06.057Z,32.10
2023-02-23T13:07:44.906Z,41.35
2023-02-23T13:10:22.054Z,26.75
2023-02-23T13:13:03.017Z,31.92
2023-02-23T13:15:44.994Z,28.23
2023-02-23T13:18:22.256Z,29.45
2023-02-23T13:20:56.007Z,32.35
2023-02-23T13:23:33.295Z,28.50
2023-02-23T13:26:11.807Z,32.15
2023-02-23T13:28:50.564Z,28.45
2023-02-23T13:31:25.677Z,32.78
2023-02-23T13:33:58.903Z,32.47
2023-02-23T13:36:30.507Z,27.90
2023-02-23T13:39:27.874Z,34.55
2023-02-23T13:42:12.286Z,42.00
2023-02-23T13:44:49.857Z,29.90
2023-02-23T13:47:31.883Z,29.63
2023-02-23T13:50:05.582Z,24.90
2023-02-23T13:52:39.821Z,31.92
2023-02-23T13:55:48.290Z,29.60
2023-02-23T13:58:20.308Z,32.85
2023-02-23T14:00:55.865Z,29.52
2023-02-23T14:03:28.249Z,25.17
2023-02-23T14:06:00.541Z,27.52
2023-02-23T14:08:35.749Z,24.15
2023-02-23T14:11:06.994Z,24.80
2023-02-23T14:13:40.384Z,20.52
2023-02-23T14:16:26.431Z,24.80
2023-02-23T14:19:08.142Z,27.63
2023-02-23T14:21:42.752Z,27.98
2023-02-23T14:24:29.822Z,33.30
2023-02-23T14:27:39.863Z,30.33
2023-02-23T14:30:20.910Z,33.20
2023-02-23T14:32:50.515Z,29.35
2023-02-23T14:35:42.870Z,35.33
2023-02-23T14:38:29.972Z,35.88
2023-02-23T14:41:03.669Z,33.08
2023-02-23T14:43:42.838Z,33.50
2023-02-23T14:46:15.719Z,34.22
2023-02-23T14:48:46.592Z,35.13
2023-02-23T14:51:21.561Z,32.30
2023-02-23T14:53:53.124Z,35.08
2023-02-23T14:56:26.207Z,31.10
2023-02-23T14:59:00.092Z,33.50
2023-02-23T15:01:38.348Z,36.80
2023-02-23T15:04:08.082Z,36.78
2023-02-23T15:06:36.812Z,33.88
2023-02-23T15:09:04.980Z,33.33
2023-02-23T15:11:33.118Z,31.20
2023-02-23T15:14:02.259Z,29.23
2023-02-23T15:16:34.908Z,33.85
2023-02-23T15:19:05.053Z,32.65
2023-02-23T15:21:32.907Z,34.38
2023-02-23T15:24:07.480Z,34.63
2023-02-23T15:26:37.991Z,34.28
2023-02-23T15:29:16.094Z,34.45
2023-02-23T15:31:51.016Z,39.95
2023-02-23T15:34:20.981Z,39.47
2023-02-23T15:36:53.619Z,39.08
2023-02-23T15:39:30.750Z,30.13
2023-02-23T15:41:58.829Z,46.80
2023-02-23T15:44:38.912Z,30.13
2023-02-23T15:47:19.936Z,26.65
2023-02-23T15:49:48.006Z,23.15
2023-02-23T15:52:18.752Z,14.48
2023-02-23T15:54:52.719Z,11.65
2023-02-23T15:57:23.894Z,15.82
2023-02-23T15:59:54.541Z,17.08
2023-02-23T16:02:25.431Z,22.10
2023-02-23T16:04:53.886Z,20.98
2023-02-23T16:07:24.706Z,21.50
2023-02-23T16:09:54.582Z,25.58
2023-02-23T16:12:26.058Z,22.63
2023-02-23T16:14:58.068Z,17.33
2023-02-23T16:17:29.648Z,19.58
2023-02-23T16:20:11.912Z,23.98
2023-02-23T16:22:40.927Z,26.98
2023-02-23T16:25:13.497Z,22.48
2023-02-23T16:27:42.319Z,27.40
2023-02-23T16:30:23.307Z,21.48
2023-02-23T16:33:04.673Z,24.67
2023-02-23T16:35:37.748Z,31.55
2023-02-23T16:38:13.782Z,27.75
2023-02-23T16:40:42.280Z,29.08
2023-02-23T16:43:10.652Z,25.02
2023-02-23T16:45:42.592Z,33.10
2023-02-23T16:48:14.581Z,29.50
2023-02-23T16:50:42.530Z,35.65
2023-02-23T16:53:12.155Z,27.48
2023-02-23T16:55:43.488Z,34.40
2023-02-23T16:58:17.193Z,32.15
2023-02-23T17:00:46.422Z,34.70
2023-02-23T17:03:20.326Z,37.65
2023-02-23T17:05:48.519Z,34.05
2023-02-23T17:08:16.301Z,45.50
2023-02-23T17:10:45.521Z,42.28
2023-02-23T17:13:18.032Z,38.33
2023-02-23T17:15:51.902Z,33.70
2023-02-23T17:18:20.385Z,32.65
2023-02-23T17:20:48.225Z,33.70
2023-02-23T17:23:16.075Z,37.25
2023-02-23T17:25:43.821Z,33.92
2023-02-23T17:28:11.616Z,29.05
2023-02-23T17:30:42.765Z,32.08
2023-02-23T17:33:12.922Z,32.25
2023-02-23T17:35:40.818Z,38.65
2023-02-23T17:38:09.590Z,33.70
2023-02-23T17:40:37.894Z,40.38
2023-02-23T17:43:08.733Z,47.90
2023-02-23T17:45:36.761Z,38.75
2023-02-23T17:48:04.585Z,46.83
2023-02-23T17:50:34.151Z,45.08
2023-02-23T17:53:01.991Z,46.17
2023-02-23T17:55:29.825Z,42.67
2023-02-23T17:57:57.655Z,37.22
2023-02-23T18:00:26.111Z,39.95
2023-02-23T18:02:53.882Z,43.05
2023-02-23T18:05:22.050Z,33.83
2023-02-23T18:07:51.196Z,36.08
2023-02-23T18:10:19.173Z,43.90
2023-02-23T18:12:46.976Z,37.28
2023-02-23T18:15:14.842Z,53.08
2023-02-23T18:17:42.618Z,40.00
2023-02-23T18:20:15.132Z,40.38
2023-02-23T18:22:43.705Z,46.78
2023-02-23T18:25:21.511Z,34.33
2023-02-23T18:27:53.963Z,32.05
2023-02-23T18:30:23.368Z,49.70
2023-02-23T18:32:52.361Z,46.67
2023-02-23T18:35:20.346Z,45.72
2023-02-23T18:37:48.674Z,40.13
2023-02-23T18:40:21.532Z,48.72
2023-02-23T18:42:49.444Z,37.07
2023-02-23T18:45:17.538Z,47.13
2023-02-23T18:47:45.304Z,37.33
2023-02-23T18:50:19.287Z,49.42
2023-02-23T18:52:48.251Z,38.90
2023-02-23T18:55:17.961Z,35.50
2023-02-23T18:57:45.732Z,38.83
2023-02-23T19:00:15.510Z,23.30
2023-02-23T19:02:46.355Z,37.50
2023-02-23T19:05:15.387Z,48.58
2023-02-23T19:07:43.372Z,30.98
2023-02-23T19:10:14.469Z,34.30
2023-02-23T19:12:43.877Z,36.65
2023-02-23T19:15:12.354Z,38.53
2023-02-23T19:17:40.264Z,35.92
2023-02-23T19:20:13.553Z,27.38
2023-02-23T19:22:42.458Z,26.90
2023-02-23T19:25:14.163Z,39.10
2023-02-23T19:27:44.023Z,25.98
2023-02-23T19:30:14.412Z,30.48
2023-02-23T19:32:43.137Z,35.75
2023-02-23T19:35:15.154Z,24.83
2023-02-23T19:37:48.514Z,28.10
2023-02-23T19:40:19.758Z,28.13
2023-02-23T19:42:49.628Z,27.45
2023-02-23T19:45:18.588Z,23.65
2023-02-23T19:47:46.552Z,27.88
2023-02-23T19:50:17.343Z,36.80
2023-02-23T19:52:46.157Z,30.00
2023-02-23T19:55:14.210Z,33.70
2023-02-23T19:57:42.029Z,34.20
2023-02-23T20:00:12.679Z,30.08
2023-02-23T20:02:43.521Z,27.13
2023-02-23T20:05:12.635Z,28.67
2023-02-23T20:07:40.754Z,24.58
2023-02-23T20:10:10.361Z,30.00
2023-02-23T20:12:38.244Z,30.38
2023-02-23T20:15:07.249Z,40.00
2023-02-23T20:17:36.807Z,28.27
2023-02-23T20:20:06.381Z,25.25
2023-02-23T20:22:36.324Z,28.38
2023-02-23T20:25:05.983Z,27.20
2023-02-23T20:27:33.959Z,40.40
2023-02-23T20:30:01.683Z,34.08
2023-02-23T20:32:29.667Z,21.80
2023-02-23T20:35:00.958Z,15.70
2023-02-23T20:37:28.879Z,24.85
2023-02-23T20:39:56.699Z,30.92
2023-02-23T20:42:26.384Z,22.83
2023-02-23T20:44:54.698Z,37.03
2023-02-23T20:47:23.094Z,32.42
2023-02-23T20:49:50.956Z,35.95
2023-02-23T20:52:20.132Z,33.97
2023-02-23T20:54:47.929Z,34.20
2023-02-23T20:57:15.750Z,20.15
2023-02-23T20:59:44.179Z,29.55
2023-02-23T21:02:13.988Z,27.40
2023-02-23T21:04:44.214Z,28.85
2023-02-23T21:07:13.525Z,31.02
2023-02-23T21:09:42.802Z,32.67
2023-02-23T21:12:11.169Z,30.13
2023-02-23T21:14:39.016Z,22.98
2023-02-23T21:17:07.448Z,22.98
2023-02-23T21:19:36.345Z,25.92
2023-02-23T21:22:04.256Z,20.80
2023-02-23T21:24:33.982Z,24.63
2023-02-23T21:27:05.302Z,26.38
2023-02-23T21:29:33.203Z,31.67
2023-02-23T21:32:01.128Z,24.80
2023-02-23T21:34:28.985Z,34.42
2023-02-23T21:36:59.208Z,24.02
2023-02-23T21:39:28.267Z,18.73
2023-02-23T21:41:56.219Z,21.60
2023-02-23T21:44:26.205Z,25.25
2023-02-23T21:46:54.044Z,19.17
2023-02-23T21:49:21.844Z,20.55
2023-02-23T21:51:50.496Z,22.70
2023-02-23T21:54:20.209Z,27.90
2023-02-23T21:56:47.978Z,15.20
2023-02-23T21:59:15.851Z,20.02
2023-02-23T22:01:45.037Z,23.48
2023-02-23T22:04:15.298Z,23.42
2023-02-23T22:06:45.090Z,22.90
2023-02-23T22:09:15.896Z,23.63
2023-02-23T22:11:46.404Z,15.68
2023-02-23T22:14:16.736Z,19.50
2023-02-23T22:16:47.647Z,18.27
2023-02-23T22:19:17.348Z,19.00
2023-02-23T22:21:47.836Z,17.20
2023-02-23T22:24:16.717Z,13.63
2023-02-23T22:26:50.460Z,23.58
2023-02-23T22:29:18.364Z,19.55
2023-02-23T22:31:47.685Z,17.48
2023-02-23T22:34:18.296Z,14.05
2023-02-23T22:36:46.580Z,16.58
2023-02-23T22:39:18.362Z,19.70
2023-02-23T22:41:47.169Z,39.20
2023-02-23T22:44:17.716Z,26.73
2023-02-23T22:46:48.210Z,22.20
2023-02-23T22:49:19.976Z,19.65
2023-02-23T22:51:48.125Z,15.43
2023-02-23T22:54:17.321Z,14.48
2023-02-23T22:56:46.828Z,17.95
2023-02-23T22:59:17.498Z,18.80
2023-02-23T23:01:47.395Z,14.70
2023-02-23T23:04:17.196Z,18.17
2023-02-23T23:06:46.252Z,39.97
2023-02-23T23:09:16.426Z,18.27
2023-02-23T23:11:44.420Z,16.88
2023-02-23T23:14:13.031Z,22.02
2023-02-23T23:16:48.011Z,13.70
2023-02-23T23:19:22.621Z,21.63
2023-02-23T23:21:54.826Z,17.90
2023-02-23T23:24:23.666Z,15.48
2023-02-23T23:26:55.490Z,18.35
2023-02-23T23:29:25.819Z,20.45
2023-02-23T23:31:55.291Z,18.05
2023-02-23T23:34:25.278Z,19.95
2023-02-23T23:36:53.509Z,18.60
2023-02-23T23:39:23.369Z,16.63
2023-02-23T23:41:51.527Z,18.33
2023-02-23T23:44:21.413Z,16.80
2023-02-23T23:46:51.450Z,19.23
2023-02-23T23:49:20.857Z,21.85
2023-02-23T23:51:51.959Z,21.45
2023-02-23T23:54:22.674Z,18.65
2023-02-23T23:56:51.418Z,18.92
2023-02-23T23:59:21.839Z,19.85
